Talmage, Iowa
Current Conditions -  °F | °C
As of 12:15 AM on Thursday 29 Jan 2015 (Local Time) from KCSQ Reporting Station
Overcast Overcast  
Wind Chill: 24°   Ceiling: 1100
Heat Index: 37°   Visibility: 10mi
Dew Point: 36°   Wind: 35mph
Humidity: 93%   Direction: 330°NNW
Pressure: 29.84"   Gusts: 51mph
Location:  40.9825°N, 94.0723°W
Report Text: KCSQ 290615Z AUTO 33030G44KT 10SM OVC011 03/02 A2984 RMK AO2
Loading
Personal Weather Stations






























Interactive Weather Map New forecast layout! Learn more

10-Day Weather Forecast

Advertisements
Track Severe Weather on mobile